Pluma, South Dakota
Current Conditions -  °F | °C
As of 2:35 AM on Saturday 25 Oct 2014 (Local Time) from KSPF Reporting Station
Clear Clear  
Wind Chill: 37°   Ceiling: Unl
Heat Index: 37°   Visibility: 10mi
Dew Point: 30°   Wind: 3mph
Humidity: 75%   Direction: 110°ESE
Pressure: 30.18"   Gusts: NA
Location:  44.2665°N, 103.672°W
Report Text: KSPF 250835Z AUTO 11003KT 10SM CLR 03/M01 A3018 RMK AO2
Loading
Personal Weather Stations






























Interactive Weather Map
Tropical Storm Tracking
New forecast layout! Learn more

10-Day Weather Forecast

Advertisements
Track Severe Weather on mobile